createdAt,value
2018-02-18T00:00:50.883Z,53.67
2018-02-18T00:03:20.581Z,55.17
2018-02-18T00:05:49.462Z,54.70
2018-02-18T00:08:18.358Z,55.27
2018-02-18T00:10:47.447Z,45.20
2018-02-18T00:13:16.321Z,54.40
2018-02-18T00:15:45.918Z,50.13
2018-02-18T00:18:15.550Z,45.47
2018-02-18T00:20:45.149Z,46.10
2018-02-18T00:23:14.339Z,43.50
2018-02-18T00:25:43.991Z,43.43
2018-02-18T00:28:12.830Z,42.87
2018-02-18T00:30:42.431Z,43.80
2018-02-18T00:33:12.047Z,47.77
2018-02-18T00:35:40.896Z,46.67
2018-02-18T00:38:09.746Z,46.20
2018-02-18T00:40:39.448Z,41.27
2018-02-18T00:43:08.314Z,39.10
2018-02-18T00:45:37.946Z,38.37
2018-02-18T00:48:06.822Z,37.60
2018-02-18T00:50:35.700Z,36.63
2018-02-18T00:53:05.685Z,39.30
2018-02-18T00:55:34.504Z,37.40
2018-02-18T00:58:04.117Z,37.90
2018-02-18T01:00:33.747Z,34.57
2018-02-18T01:03:02.588Z,35.00
2018-02-18T01:05:31.474Z,34.77
2018-02-18T01:08:00.301Z,35.20
2018-02-18T01:10:29.904Z,32.07
2018-02-18T01:12:59.534Z,30.17
2018-02-18T01:15:28.371Z,32.87
2018-02-18T01:17:57.978Z,33.20
2018-02-18T01:20:26.816Z,35.27
2018-02-18T01:22:55.674Z,31.33
2018-02-18T01:25:25.283Z,31.67
2018-02-18T01:27:54.893Z,31.10
2018-02-18T01:30:24.538Z,31.13
2018-02-18T01:32:53.367Z,30.07
2018-02-18T01:35:22.202Z,35.17
2018-02-18T01:37:52.131Z,33.17
2018-02-18T01:40:21.775Z,34.00
2018-02-18T01:42:50.612Z,32.50
2018-02-18T01:45:19.519Z,32.17
2018-02-18T01:47:49.122Z,30.83
2018-02-18T01:50:30.692Z,31.43
2018-02-18T01:52:59.521Z,31.90
2018-02-18T01:55:29.119Z,32.10
2018-02-18T01:57:58.728Z,30.57
2018-02-18T02:00:28.361Z,31.67
2018-02-18T02:02:57.974Z,32.13
2018-02-18T02:05:26.854Z,30.77
2018-02-18T02:07:55.699Z,30.47
2018-02-18T02:10:24.554Z,32.10
2018-02-18T02:12:53.422Z,30.87
2018-02-18T02:15:22.293Z,31.43
2018-02-18T02:17:51.749Z,30.63
2018-02-18T02:20:20.581Z,33.10
2018-02-18T02:22:50.214Z,31.93
2018-02-18T02:25:19.057Z,29.80
2018-02-18T02:27:47.920Z,32.90
2018-02-18T02:30:16.758Z,31.77
2018-02-18T02:32:45.602Z,30.80
2018-02-18T02:35:14.433Z,30.40
2018-02-18T02:37:43.290Z,31.20
2018-02-18T02:40:12.136Z,29.47
2018-02-18T02:42:40.983Z,30.43
2018-02-18T02:45:10.593Z,29.27
2018-02-18T02:47:39.450Z,30.00
2018-02-18T02:50:08.283Z,28.47
2018-02-18T02:52:37.137Z,32.50
2018-02-18T02:55:06.737Z,29.73
2018-02-18T02:57:35.598Z,29.97
2018-02-18T03:00:04.432Z,27.73
2018-02-18T03:02:33.312Z,28.83
2018-02-18T03:05:03.123Z,29.03
2018-02-18T03:07:32.740Z,30.87
2018-02-18T03:10:01.742Z,30.60
2018-02-18T03:12:30.623Z,29.30
2018-02-18T03:14:59.473Z,30.00
2018-02-18T03:17:28.310Z,29.37
2018-02-18T03:19:58.071Z,27.60
2018-02-18T03:22:27.689Z,29.43
2018-02-18T03:24:57.305Z,29.53
2018-02-18T03:27:26.928Z,30.73
2018-02-18T03:29:56.547Z,30.50
2018-02-18T03:32:25.398Z,31.13
2018-02-18T03:34:54.264Z,29.20
2018-02-18T03:37:23.100Z,28.87
2018-02-18T03:39:52.735Z,30.10
2018-02-18T03:42:21.578Z,29.93
2018-02-18T03:44:50.841Z,29.33
2018-02-18T03:47:19.675Z,30.70
2018-02-18T03:49:49.432Z,30.60
2018-02-18T03:52:18.310Z,31.30
2018-02-18T03:54:47.155Z,30.10
2018-02-18T03:57:16.999Z,35.47
2018-02-18T03:59:45.845Z,33.50
2018-02-18T04:02:14.687Z,31.63
2018-02-18T04:04:44.352Z,31.57
2018-02-18T04:07:13.294Z,32.20
2018-02-18T04:09:42.155Z,31.50
2018-02-18T04:12:11.771Z,31.90
2018-02-18T04:14:40.940Z,28.80
2018-02-18T04:17:09.784Z,27.67
2018-02-18T04:19:38.866Z,28.57
2018-02-18T04:22:07.794Z,30.40
2018-02-18T04:24:36.592Z,29.87
2018-02-18T04:27:05.751Z,28.87
2018-02-18T04:29:34.588Z,28.50
2018-02-18T04:32:03.435Z,31.37
2018-02-18T04:34:32.301Z,27.40
2018-02-18T04:37:01.910Z,26.87
2018-02-18T04:39:32.139Z,28.70
2018-02-18T04:42:01.742Z,28.40
2018-02-18T04:44:31.372Z,28.80
2018-02-18T04:47:00.219Z,27.97
2018-02-18T04:49:29.059Z,27.27
2018-02-18T04:51:57.891Z,26.63
2018-02-18T04:54:26.753Z,26.23
2018-02-18T04:56:55.582Z,25.83
2018-02-18T04:59:25.227Z,27.57
2018-02-18T05:01:54.037Z,23.03
2018-02-18T05:04:22.880Z,24.70
2018-02-18T05:06:52.509Z,25.50
2018-02-18T05:09:21.386Z,26.63
2018-02-18T05:11:50.222Z,25.73
2018-02-18T05:14:19.063Z,24.77
2018-02-18T05:16:48.687Z,23.73
2018-02-18T05:19:17.532Z,24.97
2018-02-18T05:21:46.377Z,23.43
2018-02-18T05:24:16.074Z,24.60
2018-02-18T05:26:44.967Z,23.77
2018-02-18T05:29:13.823Z,25.50
2018-02-18T05:31:43.450Z,25.67
2018-02-18T05:34:12.311Z,26.13
2018-02-18T05:36:41.150Z,25.57
2018-02-18T05:39:09.988Z,26.90
2018-02-18T05:41:38.878Z,24.87
2018-02-18T05:44:07.698Z,23.90
2018-02-18T05:46:36.555Z,26.03
2018-02-18T05:49:05.415Z,26.27
2018-02-18T05:51:35.031Z,23.23
2018-02-18T05:54:04.670Z,23.70
2018-02-18T05:56:33.531Z,23.87
2018-02-18T05:59:03.142Z,24.27
2018-02-18T06:01:32.010Z,23.17
2018-02-18T06:04:01.622Z,21.97
2018-02-18T06:06:31.246Z,22.90
2018-02-18T06:09:00.865Z,23.33
2018-02-18T06:11:29.735Z,23.80
2018-02-18T06:13:59.337Z,23.07
2018-02-18T06:16:28.945Z,22.97
2018-02-18T06:18:58.580Z,22.60
2018-02-18T06:21:27.455Z,23.30
2018-02-18T06:23:56.328Z,23.17
2018-02-18T06:26:25.976Z,23.10
2018-02-18T06:28:54.850Z,22.37
2018-02-18T06:31:23.703Z,21.40
2018-02-18T06:33:52.641Z,22.60
2018-02-18T06:36:22.488Z,21.70
2018-02-18T06:38:51.346Z,22.03
2018-02-18T06:41:20.986Z,22.20
2018-02-18T06:43:49.825Z,22.70
2018-02-18T06:46:18.691Z,21.27
2018-02-18T06:48:47.562Z,22.27
2018-02-18T06:51:16.798Z,21.50
2018-02-18T06:53:45.707Z,20.63
2018-02-18T06:56:15.175Z,21.87
2018-02-18T06:58:44.024Z,21.97
2018-02-18T07:01:13.012Z,23.77
2018-02-18T07:03:42.637Z,22.13
2018-02-18T07:06:11.490Z,22.00
2018-02-18T07:08:41.106Z,22.10
2018-02-18T07:11:10.719Z,21.77
2018-02-18T07:13:40.349Z,21.40
2018-02-18T07:16:09.204Z,19.83
2018-02-18T07:18:38.805Z,21.60
2018-02-18T07:21:08.432Z,23.53
2018-02-18T07:23:38.033Z,22.53
2018-02-18T07:26:07.650Z,23.33
2018-02-18T07:28:37.248Z,23.80
2018-02-18T07:31:06.887Z,22.43
2018-02-18T07:33:35.740Z,22.47
2018-02-18T07:36:04.579Z,23.30
2018-02-18T07:38:33.425Z,22.50
2018-02-18T07:41:02.275Z,21.73
2018-02-18T07:43:31.126Z,22.97
2018-02-18T07:46:00.718Z,23.97
2018-02-18T07:48:30.350Z,24.00
2018-02-18T07:50:59.181Z,21.70
2018-02-18T07:53:28.033Z,21.17
2018-02-18T07:55:56.882Z,23.03
2018-02-18T07:58:25.772Z,22.87
2018-02-18T08:00:54.611Z,24.40
2018-02-18T08:03:23.461Z,23.50
2018-02-18T08:05:52.354Z,23.87
2018-02-18T08:08:21.222Z,22.20
2018-02-18T08:10:50.042Z,23.10
2018-02-18T08:13:19.679Z,23.27
2018-02-18T08:15:48.530Z,22.90
2018-02-18T08:18:24.249Z,23.83
2018-02-18T08:21:05.937Z,22.83
2018-02-18T08:23:34.795Z,21.57
2018-02-18T08:26:03.626Z,21.83
2018-02-18T08:28:32.491Z,22.07
2018-02-18T08:31:01.376Z,21.80
2018-02-18T08:33:30.648Z,23.10
2018-02-18T08:35:59.510Z,22.30
2018-02-18T08:38:28.346Z,22.77
2018-02-18T08:40:57.186Z,18.70
2018-02-18T08:43:26.787Z,21.37
2018-02-18T08:45:55.697Z,21.77
2018-02-18T08:48:24.531Z,21.80
2018-02-18T08:50:54.151Z,21.57
2018-02-18T08:53:23.782Z,21.17
2018-02-18T08:55:53.383Z,22.53
2018-02-18T08:58:22.250Z,19.00
2018-02-18T09:00:52.599Z,21.67
2018-02-18T09:03:21.475Z,20.40
2018-02-18T09:05:50.332Z,21.50
2018-02-18T09:08:19.595Z,22.30
2018-02-18T09:10:48.480Z,21.47
2018-02-18T09:13:17.341Z,22.67
2018-02-18T09:15:46.973Z,21.83
2018-02-18T09:18:15.826Z,23.23
2018-02-18T09:20:44.800Z,26.77
2018-02-18T09:23:13.647Z,27.73
2018-02-18T09:25:42.506Z,29.97
2018-02-18T09:28:11.811Z,29.10
2018-02-18T09:30:40.672Z,32.17
2018-02-18T09:33:09.506Z,31.17
2018-02-18T09:35:38.386Z,30.07
2018-02-18T09:38:07.247Z,27.17
2018-02-18T09:40:36.157Z,26.37
2018-02-18T09:43:07.900Z,26.40
2018-02-18T09:45:37.240Z,26.63
2018-02-18T09:48:06.121Z,32.90
2018-02-18T09:50:37.720Z,27.40
2018-02-18T09:53:07.357Z,27.70
2018-02-18T09:55:37.134Z,27.57
2018-02-18T09:58:05.970Z,26.20
2018-02-18T10:00:34.815Z,25.63
2018-02-18T10:03:04.454Z,24.47
2018-02-18T10:05:33.321Z,22.80
2018-02-18T10:08:02.968Z,23.27
2018-02-18T10:10:31.842Z,23.83
2018-02-18T10:13:00.690Z,23.93
2018-02-18T10:15:29.538Z,24.07
2018-02-18T10:17:58.531Z,23.73
2018-02-18T10:20:27.432Z,22.73
2018-02-18T10:22:56.267Z,23.60
2018-02-18T10:25:25.883Z,24.30
2018-02-18T10:27:54.776Z,23.30
2018-02-18T10:30:23.785Z,24.67
2018-02-18T10:32:53.371Z,23.40
2018-02-18T10:35:23.023Z,21.93
2018-02-18T10:37:51.890Z,21.30
2018-02-18T10:40:21.483Z,23.37
2018-02-18T10:42:51.137Z,23.20
2018-02-18T10:45:19.993Z,22.80
2018-02-18T10:47:48.846Z,21.60
2018-02-18T10:50:17.719Z,21.37
2018-02-18T10:52:46.595Z,21.60
2018-02-18T10:55:15.447Z,21.93
2018-02-18T10:57:45.076Z,21.33
2018-02-18T11:00:13.950Z,20.87
2018-02-18T11:02:42.826Z,19.83
2018-02-18T11:05:12.466Z,20.10
2018-02-18T11:07:41.315Z,20.10
2018-02-18T11:10:10.935Z,20.27
2018-02-18T11:12:40.548Z,19.37
2018-02-18T11:15:10.170Z,20.90
2018-02-18T11:17:39.035Z,20.00
2018-02-18T11:20:08.687Z,20.20
2018-02-18T11:22:37.568Z,19.73
2018-02-18T11:25:08.194Z,20.50
2018-02-18T11:27:37.133Z,18.80
2018-02-18T11:30:05.988Z,19.90
2018-02-18T11:32:35.407Z,19.17
2018-02-18T11:35:04.283Z,20.60
2018-02-18T11:37:34.742Z,20.07
2018-02-18T11:40:03.596Z,20.70
2018-02-18T11:42:33.227Z,19.07
2018-02-18T11:45:02.091Z,20.10
2018-02-18T11:47:31.725Z,18.63
2018-02-18T11:50:00.733Z,20.57
2018-02-18T11:52:29.598Z,20.10
2018-02-18T11:54:59.002Z,20.10
2018-02-18T11:57:27.868Z,22.20
2018-02-18T11:59:57.498Z,21.37
2018-02-18T12:02:26.362Z,19.73
2018-02-18T12:04:55.970Z,20.43
2018-02-18T12:07:25.621Z,19.23
2018-02-18T12:09:54.478Z,19.20
2018-02-18T12:12:24.178Z,21.37
2018-02-18T12:14:53.813Z,19.43
2018-02-18T12:17:22.650Z,19.07
2018-02-18T12:19:52.306Z,19.07
2018-02-18T12:22:21.146Z,18.17
2018-02-18T12:24:50.801Z,19.33
2018-02-18T12:27:20.105Z,19.57
2018-02-18T12:29:49.110Z,18.63
2018-02-18T12:32:18.003Z,18.10
2018-02-18T12:34:46.853Z,17.83
2018-02-18T12:37:16.483Z,18.27
2018-02-18T12:39:45.332Z,17.90
2018-02-18T12:42:15.007Z,18.77
2018-02-18T12:44:43.845Z,17.77
2018-02-18T12:47:12.726Z,17.90
2018-02-18T12:49:42.371Z,17.67
2018-02-18T12:52:11.250Z,17.07
2018-02-18T12:54:40.755Z,17.90
2018-02-18T12:57:10.358Z,18.23
2018-02-18T12:59:39.241Z,17.40
2018-02-18T13:02:08.105Z,16.20
2018-02-18T13:04:37.718Z,16.70
2018-02-18T13:07:06.945Z,16.97
2018-02-18T13:09:35.775Z,17.03
2018-02-18T13:12:04.669Z,17.70
2018-02-18T13:14:33.524Z,16.20
2018-02-18T13:17:02.407Z,16.87
2018-02-18T13:19:31.281Z,17.20
2018-02-18T13:22:00.144Z,16.70
2018-02-18T13:24:28.971Z,16.93
2018-02-18T13:26:57.870Z,16.17
2018-02-18T13:29:26.708Z,16.13
2018-02-18T13:31:56.370Z,16.57
2018-02-18T13:34:25.227Z,14.80
2018-02-18T13:36:54.324Z,14.30
2018-02-18T13:39:23.235Z,13.83
2018-02-18T13:41:52.092Z,13.20
2018-02-18T13:44:20.952Z,14.80
2018-02-18T13:46:49.826Z,13.20
2018-02-18T13:49:19.452Z,13.43
2018-02-18T13:51:48.311Z,14.20
2018-02-18T13:54:17.952Z,14.00
2018-02-18T13:56:46.810Z,13.20
2018-02-18T13:59:17.063Z,13.40
2018-02-18T14:01:45.915Z,14.33
2018-02-18T14:04:15.539Z,12.87
2018-02-18T14:06:45.178Z,13.23
2018-02-18T14:09:14.031Z,11.50
2018-02-18T14:11:43.660Z,11.80
2018-02-18T14:14:12.489Z,12.20
2018-02-18T14:16:41.619Z,12.00
2018-02-18T14:19:10.451Z,11.47
2018-02-18T14:21:39.302Z,11.30
2018-02-18T14:24:08.164Z,12.50
2018-02-18T14:26:37.028Z,11.47
2018-02-18T14:29:05.878Z,12.70
2018-02-18T14:31:34.736Z,10.90
2018-02-18T14:34:04.059Z,12.23
2018-02-18T14:36:33.714Z,11.73
2018-02-18T14:39:02.674Z,12.03
2018-02-18T14:41:43.341Z,11.77
2018-02-18T14:44:24.506Z,12.40
2018-02-18T14:47:05.222Z,13.10
2018-02-18T14:49:45.954Z,13.53
2018-02-18T14:52:27.513Z,12.90
2018-02-18T14:55:09.078Z,10.60
2018-02-18T14:57:38.706Z,11.43
2018-02-18T15:00:08.105Z,11.97
2018-02-18T15:02:36.963Z,10.67
2018-02-18T15:05:05.823Z,11.10
2018-02-18T15:07:35.450Z,10.13
2018-02-18T15:10:04.917Z,9.90
2018-02-18T15:12:33.771Z,10.80
2018-02-18T15:15:02.617Z,10.63
2018-02-18T15:17:31.448Z,10.90
2018-02-18T15:20:01.092Z,11.43
2018-02-18T15:22:29.910Z,11.32
2018-02-18T15:24:58.756Z,12.47
2018-02-18T15:27:27.598Z,10.90
2018-02-18T15:29:56.782Z,10.83
2018-02-18T15:32:25.617Z,10.87
2018-02-18T15:34:55.222Z,11.63
2018-02-18T15:37:24.084Z,11.77
2018-02-18T15:39:52.942Z,12.27
2018-02-18T15:42:22.582Z,12.00
2018-02-18T15:44:51.735Z,10.40
2018-02-18T15:47:22.156Z,11.60
2018-02-18T15:49:50.993Z,11.60
2018-02-18T15:52:19.983Z,11.97
2018-02-18T15:54:48.777Z,11.60
2018-02-18T15:57:17.607Z,12.17
2018-02-18T15:59:46.458Z,11.83
2018-02-18T16:02:15.525Z,12.53
2018-02-18T16:04:44.646Z,11.20
2018-02-18T16:07:13.493Z,13.10
2018-02-18T16:09:42.335Z,12.07
2018-02-18T16:12:11.217Z,14.57
2018-02-18T16:14:40.148Z,14.97
2018-02-18T16:17:09.015Z,14.43
2018-02-18T16:19:37.874Z,13.40
2018-02-18T16:22:07.157Z,13.90
2018-02-18T16:24:36.083Z,19.90
2018-02-18T16:27:04.902Z,18.17
2018-02-18T16:29:33.764Z,15.03
2018-02-18T16:32:02.603Z,15.77
2018-02-18T16:34:32.235Z,14.03
2018-02-18T16:37:01.070Z,16.00
2018-02-18T16:39:29.911Z,16.93
2018-02-18T16:41:59.647Z,15.50
2018-02-18T16:44:29.281Z,15.70
2018-02-18T16:46:58.144Z,15.60
2018-02-18T16:49:27.779Z,16.03
2018-02-18T16:51:56.622Z,15.40
2018-02-18T16:54:26.987Z,16.47
2018-02-18T16:56:55.830Z,17.73
2018-02-18T16:59:24.670Z,15.10
2018-02-18T17:01:53.504Z,16.40
2018-02-18T17:04:22.355Z,16.57
2018-02-18T17:06:51.211Z,15.87
2018-02-18T17:09:20.818Z,16.50
2018-02-18T17:11:50.472Z,16.83
2018-02-18T17:14:19.340Z,17.80
2018-02-18T17:16:48.185Z,16.00
2018-02-18T17:19:17.010Z,17.53
2018-02-18T17:21:45.868Z,18.13
2018-02-18T17:24:15.515Z,15.47
2018-02-18T17:26:45.164Z,15.50
2018-02-18T17:29:14.063Z,17.10
2018-02-18T17:31:43.253Z,15.07
2018-02-18T17:34:12.104Z,16.20
2018-02-18T17:36:42.242Z,16.50
2018-02-18T17:39:16.918Z,17.40
2018-02-18T17:41:46.561Z,17.43
2018-02-18T17:44:15.458Z,16.70
2018-02-18T17:46:44.387Z,18.00
2018-02-18T17:49:13.279Z,17.23
2018-02-18T17:54:17.310Z,18.10
2018-02-18T17:56:46.125Z,17.00
2018-02-18T17:59:15.558Z,18.37
2018-02-18T18:01:44.813Z,23.07
2018-02-18T18:04:14.451Z,23.17
2018-02-18T18:06:43.296Z,25.63
2018-02-18T18:09:12.196Z,27.77
2018-02-18T18:11:41.040Z,30.37
2018-02-18T18:14:09.913Z,31.20
2018-02-18T18:16:38.785Z,31.97
2018-02-18T18:19:08.375Z,32.80
2018-02-18T18:21:38.011Z,34.57
2018-02-18T18:24:06.871Z,38.23
2018-02-18T18:26:36.540Z,37.10
2018-02-18T18:29:05.402Z,38.17
2018-02-18T18:31:34.276Z,37.73
2018-02-18T18:34:03.130Z,38.30
2018-02-18T18:36:32.076Z,35.67
2018-02-18T18:39:01.691Z,35.13
2018-02-18T18:41:30.534Z,36.30
2018-02-18T18:43:59.417Z,38.00
2018-02-18T18:46:28.254Z,37.63
2018-02-18T18:48:58.308Z,35.27
2018-02-18T18:51:27.156Z,38.90
2018-02-18T18:53:56.024Z,40.17
2018-02-18T18:56:24.962Z,35.97
2018-02-18T18:58:54.613Z,40.10
2018-02-18T19:01:23.443Z,38.67
2018-02-18T19:03:53.060Z,40.10
2018-02-18T19:06:22.698Z,41.47
2018-02-18T19:08:51.563Z,42.30
2018-02-18T19:11:20.417Z,39.00
2018-02-18T19:13:50.272Z,38.23
2018-02-18T19:16:19.121Z,38.40
2018-02-18T19:18:47.992Z,37.10
2018-02-18T19:21:16.840Z,33.17
2018-02-18T19:23:45.700Z,33.17
2018-02-18T19:26:14.551Z,32.83
2018-02-18T19:28:43.389Z,34.10
2018-02-18T19:31:13.036Z,33.40
2018-02-18T19:33:42.639Z,30.57
2018-02-18T19:36:11.505Z,27.17
2018-02-18T19:38:40.667Z,28.13
2018-02-18T19:41:09.790Z,29.47
2018-02-18T19:43:39.412Z,31.57
2018-02-18T19:46:08.275Z,33.27
2018-02-18T19:48:37.918Z,41.33
2018-02-18T19:51:06.780Z,40.93
2018-02-18T19:53:36.419Z,39.50
2018-02-18T19:56:05.289Z,40.37
2018-02-18T19:58:34.793Z,41.40
2018-02-18T20:01:04.424Z,37.30
2018-02-18T20:03:33.409Z,36.63
2018-02-18T20:06:02.372Z,35.57
2018-02-18T20:08:32.095Z,34.97
2018-02-18T20:11:00.984Z,36.30
2018-02-18T20:13:29.825Z,33.67
2018-02-18T20:15:59.755Z,31.77
2018-02-18T20:18:29.425Z,32.17
2018-02-18T20:20:58.648Z,30.03
2018-02-18T20:23:28.513Z,30.07
2018-02-18T20:25:57.569Z,27.00
2018-02-18T20:28:26.776Z,28.90
2018-02-18T20:30:55.740Z,25.00
2018-02-18T20:33:25.560Z,26.73
2018-02-18T20:35:55.273Z,24.80
2018-02-18T20:38:24.183Z,27.63
2018-02-18T20:40:53.811Z,24.90
2018-02-18T20:43:23.915Z,26.80
2018-02-18T20:45:53.508Z,26.10
2018-02-18T20:48:22.382Z,24.57
2018-02-18T20:50:51.234Z,24.20
2018-02-18T20:53:20.910Z,28.60
2018-02-18T20:55:49.746Z,32.70
2018-02-18T20:58:18.616Z,40.40
2018-02-18T21:00:47.459Z,40.00
2018-02-18T21:03:16.330Z,43.10
2018-02-18T21:05:45.180Z,42.30
2018-02-18T21:08:14.813Z,39.70
2018-02-18T21:10:44.430Z,38.10
2018-02-18T21:13:13.347Z,34.47
2018-02-18T21:15:42.196Z,34.93
2018-02-18T21:18:11.846Z,31.63
2018-02-18T21:20:40.715Z,31.57
2018-02-18T21:23:09.580Z,29.47
2018-02-18T21:25:39.226Z,28.50
2018-02-18T21:28:08.093Z,27.27
2018-02-18T21:30:37.699Z,25.83
2018-02-18T21:33:06.532Z,23.67
2018-02-18T21:35:35.599Z,25.13
2018-02-18T21:38:04.458Z,26.03
2018-02-18T21:40:34.082Z,24.23
2018-02-18T21:43:02.952Z,23.70
2018-02-18T21:45:31.825Z,22.70
2018-02-18T21:48:01.463Z,22.83
2018-02-18T21:50:30.311Z,25.17
2018-02-18T21:52:59.955Z,22.67
2018-02-18T21:55:28.806Z,21.87
2018-02-18T21:57:58.444Z,23.33
2018-02-18T22:00:27.388Z,22.43
2018-02-18T22:02:56.223Z,21.73
2018-02-18T22:05:25.091Z,24.10
2018-02-18T22:07:54.732Z,21.30
2018-02-18T22:10:23.594Z,22.90
2018-02-18T22:12:52.447Z,21.77
2018-02-18T22:15:21.304Z,25.00
2018-02-18T22:17:50.133Z,22.87
2018-02-18T22:20:19.737Z,23.00
2018-02-18T22:22:48.578Z,24.33
2018-02-18T22:25:17.458Z,24.33
2018-02-18T22:27:47.067Z,22.43
2018-02-18T22:30:15.934Z,21.97
2018-02-18T22:32:45.574Z,24.13
2018-02-18T22:35:14.438Z,22.90
2018-02-18T22:37:44.048Z,22.10
2018-02-18T22:40:13.666Z,23.33
2018-02-18T22:42:43.286Z,23.93
2018-02-18T22:45:12.123Z,23.53
2018-02-18T22:47:40.966Z,23.63
2018-02-18T22:50:09.806Z,25.80
2018-02-18T22:52:38.660Z,24.93
2018-02-18T22:55:07.499Z,26.33
2018-02-18T22:57:37.131Z,28.90
2018-02-18T23:00:05.973Z,26.97
2018-02-18T23:02:34.820Z,27.17
2018-02-18T23:05:09.286Z,24.77
2018-02-18T23:07:38.172Z,25.57
2018-02-18T23:10:07.370Z,25.07
2018-02-18T23:12:36.213Z,24.37
2018-02-18T23:15:05.062Z,25.63
2018-02-18T23:17:34.679Z,26.80
2018-02-18T23:20:04.291Z,25.67
2018-02-18T23:22:33.928Z,24.37
2018-02-18T23:25:02.795Z,26.17
2018-02-18T23:27:32.416Z,24.67
2018-02-18T23:30:01.263Z,25.80
2018-02-18T23:32:30.111Z,26.97
2018-02-18T23:34:58.972Z,26.33
2018-02-18T23:37:27.835Z,27.70
2018-02-18T23:39:56.670Z,24.70
2018-02-18T23:42:25.520Z,25.50
2018-02-18T23:44:55.170Z,25.07
2018-02-18T23:47:23.973Z,25.20
2018-02-18T23:49:52.843Z,25.50
2018-02-18T23:52:21.650Z,26.10
2018-02-18T23:54:50.512Z,24.37
2018-02-18T23:57:19.342Z,25.00
2018-02-18T23:59:48.452Z,24.30
